createdAt,value
2023-02-08T00:00:26.140Z,0.20
2023-02-08T00:02:54.875Z,0.20
2023-02-08T00:05:23.739Z,0.20
2023-02-08T00:07:52.712Z,0.20
2023-02-08T00:10:22.877Z,0.20
2023-02-08T00:12:52.270Z,0.20
2023-02-08T00:15:21.192Z,0.20
2023-02-08T00:17:49.657Z,0.20
2023-02-08T00:20:18.176Z,0.20
2023-02-08T00:22:47.032Z,0.20
2023-02-08T00:25:15.683Z,0.20
2023-02-08T00:27:45.397Z,0.20
2023-02-08T00:30:13.911Z,0.20
2023-02-08T00:32:42.986Z,0.20
2023-02-08T00:35:11.654Z,0.20
2023-02-08T00:37:40.144Z,0.20
2023-02-08T00:40:09.834Z,0.20
2023-02-08T00:42:38.215Z,0.20
2023-02-08T00:45:08.646Z,0.20
2023-02-08T00:47:36.940Z,0.20
2023-02-08T00:50:06.311Z,0.20
2023-02-08T00:52:34.691Z,0.20
2023-02-08T00:55:03.130Z,0.20
2023-02-08T00:57:33.065Z,0.20
2023-02-08T01:00:02.088Z,0.20
2023-02-08T01:02:32.223Z,0.20
2023-02-08T01:05:00.980Z,0.20
2023-02-08T01:07:29.698Z,0.20
2023-02-08T01:10:00.862Z,0.20
2023-02-08T01:12:29.443Z,0.20
2023-02-08T01:15:07.166Z,0.20
2023-02-08T01:17:39.102Z,0.20
2023-02-08T01:20:08.948Z,0.20
2023-02-08T01:22:38.139Z,0.20
2023-02-08T01:25:08.332Z,0.20
2023-02-08T01:27:37.529Z,0.20
2023-02-08T01:30:06.853Z,0.20
2023-02-08T01:32:35.340Z,0.20
2023-02-08T01:35:06.673Z,0.20
2023-02-08T01:37:35.208Z,0.20
2023-02-08T01:40:03.802Z,0.20
2023-02-08T01:42:32.714Z,0.20
2023-02-08T01:45:30.630Z,0.20
2023-02-08T01:48:05.681Z,0.20
2023-02-08T01:50:44.904Z,0.20
2023-02-08T01:53:14.814Z,0.20
2023-02-08T01:55:49.717Z,0.20
2023-02-08T01:58:24.292Z,0.20
2023-02-08T02:00:52.671Z,0.20
2023-02-08T02:03:23.537Z,0.20
2023-02-08T02:05:57.257Z,0.20
2023-02-08T02:08:26.022Z,0.20
2023-02-08T02:10:54.736Z,0.20
2023-02-08T02:13:26.196Z,0.20
2023-02-08T02:15:55.485Z,0.20
2023-02-08T02:18:26.863Z,0.20
2023-02-08T02:21:11.352Z,0.20
2023-02-08T02:24:11.841Z,0.20
2023-02-08T02:27:07.314Z,0.20
2023-02-08T02:30:04.355Z,0.20
2023-02-08T02:32:51.550Z,0.20
2023-02-08T02:35:31.741Z,0.20
2023-02-08T02:38:11.844Z,0.20
2023-02-08T02:40:50.076Z,0.20
2023-02-08T02:43:42.133Z,0.20
2023-02-08T02:46:23.013Z,0.20
2023-02-08T02:49:05.472Z,0.20
2023-02-08T02:51:47.315Z,0.20
2023-02-08T02:54:20.898Z,0.20
2023-02-08T02:56:54.915Z,0.20
2023-02-08T02:59:24.435Z,0.20
2023-02-08T03:01:57.647Z,0.20
2023-02-08T03:04:51.300Z,0.20
2023-02-08T03:07:32.269Z,0.20
2023-02-08T03:10:13.066Z,0.20
2023-02-08T03:12:54.686Z,0.20
2023-02-08T03:15:33.341Z,0.20
2023-02-08T03:18:13.568Z,0.20
2023-02-08T03:20:52.371Z,-3276.70
2023-02-08T03:23:28.769Z,0.20
2023-02-08T03:26:04.810Z,0.20
2023-02-08T03:28:41.572Z,0.20
2023-02-08T03:31:15.044Z,0.20
2023-02-08T03:33:49.640Z,0.20
2023-02-08T03:36:27.317Z,0.20
2023-02-08T03:38:56.935Z,0.20
2023-02-08T03:41:33.632Z,0.20
2023-02-08T03:44:06.287Z,0.20
2023-02-08T03:46:39.504Z,0.20
2023-02-08T03:49:14.901Z,0.20
2023-02-08T03:51:46.567Z,0.20
2023-02-08T03:54:19.174Z,0.20
2023-02-08T03:56:53.747Z,0.20
2023-02-08T03:59:26.229Z,0.20
2023-02-08T04:01:59.223Z,0.20
2023-02-08T04:04:31.013Z,0.20
2023-02-08T04:07:01.545Z,0.20
2023-02-08T04:09:30.888Z,0.20
2023-02-08T04:12:00.171Z,0.20
2023-02-08T04:14:28.939Z,0.20
2023-02-08T04:16:57.898Z,0.20
2023-02-08T04:19:27.641Z,0.20
2023-02-08T04:21:57.193Z,0.20
2023-02-08T04:24:27.162Z,0.20
2023-02-08T04:26:56.536Z,0.20
2023-02-08T04:29:25.202Z,0.20
2023-02-08T04:31:54.720Z,0.20
2023-02-08T04:34:24.160Z,0.20
2023-02-08T04:36:54.135Z,0.20
2023-02-08T04:39:23.788Z,0.20
2023-02-08T04:41:54.286Z,0.20
2023-02-08T04:44:25.216Z,0.20
2023-02-08T04:46:53.642Z,0.20
2023-02-08T04:49:24.973Z,0.20
2023-02-08T04:51:53.904Z,0.20
2023-02-08T04:54:22.229Z,0.20
2023-02-08T04:56:51.320Z,0.20
2023-02-08T04:59:21.304Z,0.20
2023-02-08T05:01:49.905Z,0.20
2023-02-08T05:04:19.025Z,0.20
2023-02-08T05:06:48.529Z,0.20
2023-02-08T05:09:17.045Z,0.20
2023-02-08T05:11:47.274Z,0.20
2023-02-08T05:14:16.654Z,0.20
2023-02-08T05:16:46.446Z,0.20
2023-02-08T05:19:15.093Z,0.20
2023-02-08T05:21:44.020Z,0.20
2023-02-08T05:24:13.277Z,0.20
2023-02-08T05:26:42.103Z,0.20
2023-02-08T05:29:14.884Z,0.20
2023-02-08T05:31:46.881Z,0.20
2023-02-08T05:34:16.320Z,0.20
2023-02-08T05:36:45.401Z,0.20
2023-02-08T05:39:13.920Z,0.20
2023-02-08T05:41:42.442Z,0.20
2023-02-08T05:44:11.710Z,0.20
2023-02-08T05:46:40.552Z,0.20
2023-02-08T05:49:10.303Z,0.20
2023-02-08T05:51:38.843Z,0.20
2023-02-08T05:54:07.471Z,0.20
2023-02-08T05:56:36.345Z,0.20
2023-02-08T05:59:05.983Z,0.20
2023-02-08T06:01:34.583Z,0.20
2023-02-08T06:04:03.378Z,0.20
2023-02-08T06:06:33.662Z,0.20
2023-02-08T06:09:04.846Z,0.20
2023-02-08T06:11:34.613Z,0.20
2023-02-08T06:14:03.961Z,0.20
2023-02-08T06:16:32.856Z,0.20
2023-02-08T06:19:02.587Z,0.20
2023-02-08T06:21:31.405Z,0.20
2023-02-08T06:24:01.438Z,0.20
2023-02-08T06:26:30.527Z,0.20
2023-02-08T06:29:00.103Z,0.20
2023-02-08T06:31:28.738Z,0.20
2023-02-08T06:33:57.148Z,0.20
2023-02-08T06:36:26.012Z,0.20
2023-02-08T06:38:54.616Z,0.20
2023-02-08T06:41:24.368Z,0.20
2023-02-08T06:43:55.182Z,0.20
2023-02-08T06:46:23.849Z,0.20
2023-02-08T06:48:52.530Z,0.20
2023-02-08T06:51:21.655Z,0.20
2023-02-08T06:53:49.934Z,0.20
2023-02-08T06:56:18.303Z,0.20
2023-02-08T06:58:48.041Z,0.20
2023-02-08T07:01:17.021Z,0.20
2023-02-08T07:03:46.301Z,0.20
2023-02-08T07:06:15.921Z,0.20
2023-02-08T07:08:44.636Z,0.20
2023-02-08T07:11:15.427Z,0.20
2023-02-08T07:13:44.108Z,0.20
2023-02-08T07:16:17.524Z,0.20
2023-02-08T07:18:46.805Z,0.20
2023-02-08T07:21:15.556Z,0.20
2023-02-08T07:23:44.092Z,0.20
2023-02-08T07:26:14.412Z,0.20
2023-02-08T07:28:43.392Z,0.20
2023-02-08T07:31:16.935Z,0.20
2023-02-08T07:33:46.101Z,0.20
2023-02-08T07:36:14.886Z,0.20
2023-02-08T07:38:47.110Z,0.20
2023-02-08T07:41:16.543Z,0.20
2023-02-08T07:43:45.253Z,0.20
2023-02-08T07:46:17.713Z,0.20
2023-02-08T07:48:49.487Z,0.20
2023-02-08T07:51:17.752Z,0.20
2023-02-08T07:53:46.928Z,0.20
2023-02-08T07:56:15.817Z,0.20
2023-02-08T07:58:45.446Z,0.20
2023-02-08T08:01:22.446Z,0.20
2023-02-08T08:03:52.720Z,0.20
2023-02-08T08:06:23.448Z,0.20
2023-02-08T08:08:52.479Z,0.20
2023-02-08T08:11:23.066Z,0.20
2023-02-08T08:13:52.634Z,0.20
2023-02-08T08:16:22.657Z,0.20
2023-02-08T08:18:51.753Z,0.20
2023-02-08T08:21:21.467Z,0.20
2023-02-08T08:23:50.004Z,0.20
2023-02-08T08:26:20.229Z,0.20
2023-02-08T08:29:05.039Z,0.20
2023-02-08T08:31:38.749Z,0.20
2023-02-08T08:34:08.714Z,0.20
2023-02-08T08:36:38.648Z,0.20
2023-02-08T08:39:08.163Z,0.20
2023-02-08T08:41:37.041Z,0.20
2023-02-08T08:44:05.838Z,0.20
2023-02-08T08:46:34.704Z,0.20
2023-02-08T08:49:05.598Z,0.20
2023-02-08T08:51:35.658Z,0.20
2023-02-08T08:54:05.125Z,0.20
2023-02-08T08:56:33.703Z,0.20
2023-02-08T08:59:04.892Z,0.20
2023-02-08T09:01:34.794Z,0.20
2023-02-08T09:04:07.002Z,0.20
2023-02-08T09:06:36.717Z,0.20
2023-02-08T09:09:08.709Z,0.20
2023-02-08T09:11:37.190Z,0.20
2023-02-08T09:14:06.353Z,0.20
2023-02-08T09:16:36.300Z,0.20
2023-02-08T09:19:08.036Z,0.20
2023-02-08T09:21:38.862Z,0.20
2023-02-08T09:24:07.703Z,0.20
2023-02-08T09:26:37.537Z,0.20
2023-02-08T09:29:07.542Z,0.20
2023-02-08T09:31:37.978Z,0.20
2023-02-08T09:34:08.560Z,0.20
2023-02-08T09:36:41.700Z,0.20
2023-02-08T09:39:13.266Z,0.20
2023-02-08T09:42:05.904Z,0.20
2023-02-08T09:45:17.239Z,0.20
2023-02-08T09:47:53.659Z,0.20
2023-02-08T09:50:32.495Z,0.20
2023-02-08T09:53:12.483Z,0.20
2023-02-08T09:55:44.863Z,0.20
2023-02-08T09:58:23.008Z,0.20
2023-02-08T10:00:54.695Z,0.20
2023-02-08T10:03:30.508Z,0.20
2023-02-08T10:06:03.443Z,0.20
2023-02-08T10:08:35.437Z,0.20
2023-02-08T10:11:21.882Z,0.20
2023-02-08T10:14:09.736Z,0.20
2023-02-08T10:17:11.146Z,0.20
2023-02-08T10:19:59.814Z,0.20
2023-02-08T10:22:40.551Z,0.20
2023-02-08T10:25:26.252Z,0.20
2023-02-08T10:28:13.558Z,0.20
2023-02-08T10:30:50.422Z,0.20
2023-02-08T10:33:26.977Z,0.20
2023-02-08T10:35:56.988Z,0.20
2023-02-08T10:38:46.529Z,0.20
2023-02-08T10:41:22.737Z,0.20
2023-02-08T10:44:04.484Z,0.20
2023-02-08T10:46:42.419Z,0.20
2023-02-08T10:49:17.988Z,0.20
2023-02-08T10:51:48.018Z,0.20
2023-02-08T10:54:18.791Z,0.20
2023-02-08T10:56:51.984Z,0.20
2023-02-08T10:59:49.495Z,0.20
2023-02-08T11:02:24.351Z,0.20
2023-02-08T11:05:00.758Z,0.20
2023-02-08T11:07:31.342Z,0.20
2023-02-08T11:10:22.698Z,0.20
2023-02-08T11:12:59.884Z,0.20
2023-02-08T11:15:34.143Z,0.20
2023-02-08T11:18:04.879Z,0.20
2023-02-08T11:20:37.722Z,0.20
2023-02-08T11:23:25.614Z,0.20
2023-02-08T11:25:55.848Z,0.20
2023-02-08T11:28:27.490Z,0.20
2023-02-08T11:30:58.252Z,0.20
2023-02-08T11:33:27.674Z,0.20
2023-02-08T11:36:07.265Z,0.20
2023-02-08T11:38:37.942Z,0.20
2023-02-08T11:41:17.411Z,0.20
2023-02-08T11:44:00.633Z,0.20
2023-02-08T11:46:32.038Z,0.20
2023-02-08T11:49:03.696Z,0.20
2023-02-08T11:51:35.762Z,0.20
2023-02-08T11:54:06.751Z,0.20
2023-02-08T11:56:37.612Z,0.20
2023-02-08T11:59:20.285Z,0.20
2023-02-08T12:01:49.821Z,0.20
2023-02-08T12:04:20.169Z,0.20
2023-02-08T12:07:18.568Z,0.20
2023-02-08T12:10:06.506Z,0.20
2023-02-08T12:12:53.355Z,0.20
2023-02-08T12:15:31.940Z,0.20
2023-02-08T12:18:15.687Z,0.20
2023-02-08T12:20:47.124Z,0.20
2023-02-08T12:23:41.101Z,0.20
2023-02-08T12:26:19.722Z,0.20
2023-02-08T12:29:23.695Z,0.20
2023-02-08T12:32:06.643Z,0.20
2023-02-08T12:34:52.030Z,0.20
2023-02-08T12:37:49.546Z,0.20
2023-02-08T12:40:52.799Z,0.20
2023-02-08T12:43:42.695Z,0.20
2023-02-08T12:46:23.472Z,0.20
2023-02-08T12:49:09.579Z,0.20
2023-02-08T12:51:51.469Z,0.20
2023-02-08T12:54:30.949Z,0.20
2023-02-08T12:57:02.933Z,0.20
2023-02-08T12:59:35.163Z,0.20
2023-02-08T13:02:15.743Z,0.20
2023-02-08T13:04:48.081Z,0.20
2023-02-08T13:07:22.284Z,0.20
2023-02-08T13:09:58.098Z,0.20
2023-02-08T13:12:30.607Z,0.20
2023-02-08T13:15:04.613Z,0.20
2023-02-08T13:17:46.946Z,0.20
2023-02-08T13:20:30.758Z,0.20
2023-02-08T13:23:03.835Z,0.20
2023-02-08T13:25:37.622Z,0.20
2023-02-08T13:28:09.290Z,5.30
2023-02-08T13:30:40.930Z,5.00
2023-02-08T13:33:19.746Z,5.10
2023-02-08T13:35:52.006Z,5.20
2023-02-08T13:38:28.050Z,5.20
2023-02-08T13:41:09.377Z,5.10
2023-02-08T13:43:43.729Z,5.30
2023-02-08T13:46:18.106Z,5.00
2023-02-08T13:48:53.637Z,5.10
2023-02-08T13:51:53.028Z,5.00
2023-02-08T13:54:21.466Z,5.00
2023-02-08T13:56:51.813Z,4.90
2023-02-08T13:59:35.387Z,5.00
2023-02-08T14:02:26.977Z,4.90
2023-02-08T14:05:26.321Z,5.00
2023-02-08T14:07:59.297Z,5.00
2023-02-08T14:10:37.614Z,5.00
2023-02-08T14:13:17.154Z,5.00
2023-02-08T14:15:47.759Z,4.90
2023-02-08T14:18:26.475Z,4.90
2023-02-08T14:21:07.525Z,5.00
2023-02-08T14:23:40.577Z,4.80
2023-02-08T14:26:16.661Z,4.90
2023-02-08T14:28:48.808Z,4.70
2023-02-08T14:31:18.875Z,4.90
2023-02-08T14:33:54.704Z,4.80
2023-02-08T14:36:30.822Z,4.70
2023-02-08T14:39:24.420Z,4.70
2023-02-08T14:41:57.235Z,4.70
2023-02-08T14:45:00.182Z,4.60
2023-02-08T14:48:18.926Z,4.40
2023-02-08T14:51:00.028Z,4.70
2023-02-08T14:53:36.670Z,4.40
2023-02-08T14:56:15.459Z,4.30
2023-02-08T14:58:47.342Z,4.40
2023-02-08T15:01:20.224Z,4.30
2023-02-08T15:03:51.376Z,4.20
2023-02-08T15:07:08.336Z,4.10
2023-02-08T15:09:40.961Z,4.10
2023-02-08T15:12:15.388Z,3.90
2023-02-08T15:14:44.452Z,3.80
2023-02-08T15:17:22.330Z,3.90
2023-02-08T15:19:52.907Z,4.00
2023-02-08T15:22:33.641Z,3.80
2023-02-08T15:25:21.162Z,3.70
2023-02-08T15:28:01.854Z,3.80
2023-02-08T15:30:35.150Z,3.70
2023-02-08T15:33:09.259Z,3.70
2023-02-08T15:35:38.475Z,3.70
2023-02-08T15:38:15.259Z,3.60
2023-02-08T15:41:01.340Z,3.30
2023-02-08T15:43:30.242Z,3.40
2023-02-08T15:45:59.846Z,3.40
2023-02-08T15:48:29.497Z,3.40
2023-02-08T15:51:00.252Z,3.30
2023-02-08T15:53:29.594Z,3.30
2023-02-08T15:56:03.816Z,3.10
2023-02-08T15:58:39.070Z,3.10
2023-02-08T16:01:10.016Z,3.20
2023-02-08T16:03:38.985Z,2.90
2023-02-08T16:06:08.427Z,2.90
2023-02-08T16:08:42.989Z,2.90
2023-02-08T16:11:21.323Z,2.90
2023-02-08T16:13:52.781Z,2.90
2023-02-08T16:16:27.016Z,2.70
2023-02-08T16:19:01.926Z,2.80
2023-02-08T16:21:38.918Z,2.80
2023-02-08T16:24:26.514Z,2.60
2023-02-08T16:27:03.729Z,2.70
2023-02-08T16:29:35.109Z,2.50
2023-02-08T16:32:12.529Z,2.60
2023-02-08T16:34:47.690Z,2.50
2023-02-08T16:37:26.258Z,2.50
2023-02-08T16:39:58.760Z,2.30
2023-02-08T16:42:35.980Z,2.30
2023-02-08T16:45:19.302Z,2.30
2023-02-08T16:47:51.939Z,2.20
2023-02-08T16:50:23.683Z,2.30
2023-02-08T16:52:55.812Z,2.30
2023-02-08T16:55:27.399Z,2.30
2023-02-08T16:58:00.187Z,2.00
2023-02-08T17:00:32.588Z,2.10
2023-02-08T17:03:01.685Z,2.00
2023-02-08T17:05:33.368Z,2.00
2023-02-08T17:08:03.264Z,2.10
2023-02-08T17:10:34.208Z,1.90
2023-02-08T17:13:23.901Z,1.80
2023-02-08T17:16:00.548Z,1.90
2023-02-08T17:18:34.993Z,1.90
2023-02-08T17:21:05.467Z,1.70
2023-02-08T17:23:34.703Z,1.80
2023-02-08T17:26:03.225Z,1.80
2023-02-08T17:28:36.000Z,2.00
2023-02-08T17:31:06.410Z,1.60
2023-02-08T17:33:40.330Z,1.50
2023-02-08T17:36:10.215Z,1.50
2023-02-08T17:38:40.714Z,1.70
2023-02-08T17:41:16.729Z,1.80
2023-02-08T17:43:47.783Z,1.50
2023-02-08T17:46:20.593Z,1.30
2023-02-08T17:48:50.552Z,1.50
2023-02-08T17:51:22.288Z,1.50
2023-02-08T17:53:54.035Z,1.40
2023-02-08T17:56:25.567Z,1.30
2023-02-08T17:58:59.484Z,1.40
2023-02-08T18:01:29.701Z,1.20
2023-02-08T18:04:02.084Z,1.20
2023-02-08T18:06:33.015Z,1.10
2023-02-08T18:09:02.789Z,1.00
2023-02-08T18:11:38.846Z,1.00
2023-02-08T18:14:11.730Z,1.40
2023-02-08T18:16:40.396Z,1.10
2023-02-08T18:19:12.416Z,1.10
2023-02-08T18:21:44.426Z,1.00
2023-02-08T18:24:14.047Z,0.80
2023-02-08T18:26:43.200Z,1.10
2023-02-08T18:29:12.857Z,0.90
2023-02-08T18:31:43.093Z,1.00
2023-02-08T18:34:12.014Z,1.00
2023-02-08T18:36:41.133Z,0.80
2023-02-08T18:39:10.407Z,0.80
2023-02-08T18:41:40.613Z,0.90
2023-02-08T18:44:10.773Z,1.10
2023-02-08T18:46:43.138Z,0.70
2023-02-08T18:49:15.302Z,0.70
2023-02-08T18:51:45.745Z,0.60
2023-02-08T18:54:16.306Z,0.70
2023-02-08T18:56:47.173Z,0.60
2023-02-08T18:59:18.746Z,0.60
2023-02-08T19:01:49.354Z,0.70
2023-02-08T19:04:20.403Z,0.50
2023-02-08T19:06:50.008Z,0.60
2023-02-08T19:09:19.080Z,0.40
2023-02-08T19:12:05.204Z,0.70
2023-02-08T19:14:37.415Z,0.50
2023-02-08T19:17:10.522Z,0.30
2023-02-08T19:19:41.150Z,0.40
2023-02-08T19:22:09.977Z,0.30
2023-02-08T19:24:39.767Z,0.40
2023-02-08T19:27:10.293Z,0.20
2023-02-08T19:29:39.455Z,0.50
2023-02-08T19:32:11.296Z,0.20
2023-02-08T19:34:44.393Z,0.30
2023-02-08T19:37:13.098Z,0.10
2023-02-08T19:39:42.293Z,0.20
2023-02-08T19:42:12.834Z,0.10
2023-02-08T19:44:43.577Z,0.00
2023-02-08T19:47:17.307Z,0.10
2023-02-08T19:49:49.950Z,0.20
2023-02-08T19:52:21.123Z,0.00
2023-02-08T19:54:49.783Z,0.20
2023-02-08T19:57:20.281Z,0.00
2023-02-08T19:59:50.368Z,0.00
2023-02-08T20:02:24.685Z,0.00
2023-02-08T20:04:53.320Z,0.00
2023-02-08T20:07:21.974Z,0.00
2023-02-08T20:09:51.007Z,0.00
2023-02-08T20:12:22.739Z,-3276.60
2023-02-08T20:14:53.261Z,-3276.70
2023-02-08T20:17:24.106Z,0.00
2023-02-08T20:19:53.187Z,-3276.70
2023-02-08T20:22:22.723Z,0.00
2023-02-08T20:24:51.835Z,-3276.70
2023-02-08T20:27:22.841Z,-3276.60
2023-02-08T20:29:56.908Z,-3276.60
2023-02-08T20:32:29.192Z,-3276.50
2023-02-08T20:35:01.149Z,-3276.60
2023-02-08T20:37:30.353Z,-3276.60
2023-02-08T20:39:59.720Z,-3276.50
2023-02-08T20:42:28.738Z,-3276.50
2023-02-08T20:44:59.325Z,-3276.40
2023-02-08T20:47:33.807Z,-3276.70
2023-02-08T20:50:17.788Z,-3276.50
2023-02-08T20:52:50.706Z,-3276.50
2023-02-08T20:55:20.257Z,-3276.40
2023-02-08T20:57:48.853Z,-3276.50
2023-02-08T21:00:17.796Z,-3276.40
2023-02-08T21:02:47.715Z,-3276.40
2023-02-08T21:05:16.551Z,-3276.50
2023-02-08T21:07:45.154Z,-3276.40
2023-02-08T21:10:13.935Z,-3276.60
2023-02-08T21:12:42.657Z,-3276.50
2023-02-08T21:15:11.597Z,-3276.20
2023-02-08T21:17:41.174Z,-3276.40
2023-02-08T21:28:52.841Z,-3276.10
2023-02-08T21:31:23.376Z,-3276.20
2023-02-08T21:33:52.930Z,-3276.20
2023-02-08T21:36:25.664Z,-3276.10
2023-02-08T21:38:55.821Z,-3276.20
2023-02-08T21:50:18.505Z,-3276.20
2023-02-08T21:53:06.885Z,-3276.30
2023-02-08T21:55:54.857Z,-3276.00
2023-02-08T21:58:25.215Z,-3276.10
2023-02-08T22:00:53.944Z,-3276.00
2023-02-08T22:03:22.458Z,-3276.00
2023-02-08T22:05:52.297Z,-3276.00
2023-02-08T22:08:22.041Z,-3275.80
2023-02-08T22:10:58.296Z,-3275.90
2023-02-08T22:13:28.186Z,-3275.90
2023-02-08T22:15:58.857Z,-3275.80
2023-02-08T22:21:49.132Z,-3275.90
2023-02-08T22:24:17.502Z,-3275.80
2023-02-08T22:26:47.270Z,0.20
2023-02-08T22:29:15.965Z,0.20
2023-02-08T22:31:44.668Z,0.20
2023-02-08T22:34:13.432Z,0.20
2023-02-08T22:36:42.148Z,0.20
2023-02-08T22:39:15.819Z,0.20
2023-02-08T22:41:44.505Z,0.20
2023-02-08T22:44:13.280Z,0.20
2023-02-08T22:46:41.969Z,0.20
2023-02-08T22:49:10.394Z,0.20
2023-02-08T22:51:39.515Z,0.20
2023-02-08T22:54:08.018Z,0.20
2023-02-08T22:56:38.457Z,0.20
2023-02-08T22:59:07.491Z,0.20
2023-02-08T23:02:29.161Z,0.20
2023-02-08T23:04:57.855Z,0.20
2023-02-08T23:07:26.308Z,0.20
2023-02-08T23:09:54.577Z,0.20
2023-02-08T23:12:24.599Z,0.20
2023-02-08T23:14:53.078Z,0.20
2023-02-08T23:17:21.581Z,0.20
2023-02-08T23:19:52.549Z,0.20
2023-02-08T23:22:22.381Z,0.20
2023-02-08T23:24:50.571Z,0.20
2023-02-08T23:27:18.935Z,0.20
2023-02-08T23:29:48.664Z,0.20
2023-02-08T23:32:17.279Z,0.20
2023-02-08T23:34:46.402Z,0.20
2023-02-08T23:41:25.883Z,0.20
2023-02-08T23:43:54.479Z,0.20
2023-02-08T23:46:26.768Z,0.20
2023-02-08T23:48:56.231Z,0.20
2023-02-08T23:51:26.544Z,0.20
2023-02-08T23:53:55.780Z,0.20
2023-02-08T23:56:26.157Z,0.20
2023-02-08T23:58:56.362Z,0.20
